sensor_id;sensor_type;location;lat;lon;timestamp;P1;durP1;ratioP1;P2;durP2;ratioP2
34204;SDS011;20471;49.680;20.074;2023-08-12T00:01:30;8.50;;;5.50;;
34204;SDS011;20471;49.680;20.074;2023-08-12T00:03:56;7.10;;;6.00;;
34204;SDS011;20471;49.680;20.074;2023-08-12T00:06:22;10.40;;;6.00;;
34204;SDS011;20471;49.680;20.074;2023-08-12T00:08:49;6.60;;;5.60;;
34204;SDS011;20471;49.680;20.074;2023-08-12T00:11:15;7.80;;;5.90;;
34204;SDS011;20471;49.680;20.074;2023-08-12T00:13:41;6.20;;;5.40;;
34204;SDS011;20471;49.680;20.074;2023-08-12T00:16:07;7.10;;;5.80;;
34204;SDS011;20471;49.680;20.074;2023-08-12T00:18:34;7.80;;;5.20;;
34204;SDS011;20471;49.680;20.074;2023-08-12T00:21:08;8.00;;;5.30;;
34204;SDS011;20471;49.680;20.074;2023-08-12T00:23:39;5.80;;;5.00;;
34204;SDS011;20471;49.680;20.074;2023-08-12T00:26:07;8.20;;;5.70;;
34204;SDS011;20471;49.680;20.074;2023-08-12T00:28:34;7.20;;;5.00;;
34204;SDS011;20471;49.680;20.074;2023-08-12T00:31:00;8.20;;;5.10;;
34204;SDS011;20471;49.680;20.074;2023-08-12T00:33:26;8.20;;;5.90;;
34204;SDS011;20471;49.680;20.074;2023-08-12T00:35:53;11.60;;;6.80;;
34204;SDS011;20471;49.680;20.074;2023-08-12T00:38:19;7.60;;;6.60;;
34204;SDS011;20471;49.680;20.074;2023-08-12T00:40:45;8.00;;;6.20;;
34204;SDS011;20471;49.680;20.074;2023-08-12T00:43:12;8.00;;;6.20;;
34204;SDS011;20471;49.680;20.074;2023-08-12T00:45:38;9.10;;;5.70;;
34204;SDS011;20471;49.680;20.074;2023-08-12T00:48:05;8.10;;;5.90;;
34204;SDS011;20471;49.680;20.074;2023-08-12T00:50:33;11.50;;;6.30;;
34204;SDS011;20471;49.680;20.074;2023-08-12T00:53:02;7.30;;;5.80;;
34204;SDS011;20471;49.680;20.074;2023-08-12T00:55:28;7.60;;;6.30;;
34204;SDS011;20471;49.680;20.074;2023-08-12T00:57:54;10.00;;;6.20;;
34204;SDS011;20471;49.680;20.074;2023-08-12T01:00:21;6.10;;;5.20;;
34204;SDS011;20471;49.680;20.074;2023-08-12T01:02:47;7.30;;;5.40;;
34204;SDS011;20471;49.680;20.074;2023-08-12T01:05:14;5.80;;;4.80;;
34204;SDS011;20471;49.680;20.074;2023-08-12T01:07:42;7.30;;;5.30;;
34204;SDS011;20471;49.680;20.074;2023-08-12T01:10:08;8.30;;;4.60;;
34204;SDS011;20471;49.680;20.074;2023-08-12T01:12:52;6.90;;;4.80;;
34204;SDS011;20471;49.680;20.074;2023-08-12T01:15:25;10.40;;;4.80;;
34204;SDS011;20471;49.680;20.074;2023-08-12T01:17:53;7.60;;;4.90;;
34204;SDS011;20471;49.680;20.074;2023-08-12T01:20:20;6.40;;;4.50;;
34204;SDS011;20471;49.680;20.074;2023-08-12T01:22:56;7.50;;;4.70;;
34204;SDS011;20471;49.680;20.074;2023-08-12T01:25:43;8.20;;;5.10;;
34204;SDS011;20471;49.680;20.074;2023-08-12T01:28:10;5.60;;;4.90;;
34204;SDS011;20471;49.680;20.074;2023-08-12T01:30:43;7.60;;;5.00;;
34204;SDS011;20471;49.680;20.074;2023-08-12T01:33:21;6.00;;;5.40;;
34204;SDS011;20471;49.680;20.074;2023-08-12T01:36:09;7.20;;;4.90;;
34204;SDS011;20471;49.680;20.074;2023-08-12T01:38:43;7.10;;;5.30;;
34204;SDS011;20471;49.680;20.074;2023-08-12T01:41:12;6.70;;;4.50;;
34204;SDS011;20471;49.680;20.074;2023-08-12T01:43:40;6.90;;;5.20;;
34204;SDS011;20471;49.680;20.074;2023-08-12T01:46:07;5.70;;;4.70;;
34204;SDS011;20471;49.680;20.074;2023-08-12T01:48:34;6.80;;;5.40;;
34204;SDS011;20471;49.680;20.074;2023-08-12T01:51:00;8.00;;;5.00;;
34204;SDS011;20471;49.680;20.074;2023-08-12T01:53:26;6.60;;;4.70;;
34204;SDS011;20471;49.680;20.074;2023-08-12T01:55:53;7.40;;;5.30;;
34204;SDS011;20471;49.680;20.074;2023-08-12T01:58:19;6.60;;;5.00;;
34204;SDS011;20471;49.680;20.074;2023-08-12T02:00:45;6.90;;;4.90;;
34204;SDS011;20471;49.680;20.074;2023-08-12T02:03:12;5.20;;;4.70;;
34204;SDS011;20471;49.680;20.074;2023-08-12T02:05:38;9.60;;;5.00;;
34204;SDS011;20471;49.680;20.074;2023-08-12T02:08:06;8.70;;;5.40;;
34204;SDS011;20471;49.680;20.074;2023-08-12T02:10:32;6.60;;;4.90;;
34204;SDS011;20471;49.680;20.074;2023-08-12T02:12:59;5.30;;;4.80;;
34204;SDS011;20471;49.680;20.074;2023-08-12T02:15:25;6.90;;;5.00;;
34204;SDS011;20471;49.680;20.074;2023-08-12T02:17:51;9.00;;;5.30;;
34204;SDS011;20471;49.680;20.074;2023-08-12T02:20:18;9.70;;;5.40;;
34204;SDS011;20471;49.680;20.074;2023-08-12T02:22:44;5.90;;;4.60;;
34204;SDS011;20471;49.680;20.074;2023-08-12T02:25:10;6.80;;;4.90;;
34204;SDS011;20471;49.680;20.074;2023-08-12T02:27:37;6.30;;;4.80;;
34204;SDS011;20471;49.680;20.074;2023-08-12T02:30:03;7.30;;;4.80;;
34204;SDS011;20471;49.680;20.074;2023-08-12T02:32:30;6.00;;;4.60;;
34204;SDS011;20471;49.680;20.074;2023-08-12T02:34:57;6.00;;;4.80;;
34204;SDS011;20471;49.680;20.074;2023-08-12T02:37:23;6.10;;;4.90;;
34204;SDS011;20471;49.680;20.074;2023-08-12T02:39:49;10.10;;;4.90;;
34204;SDS011;20471;49.680;20.074;2023-08-12T02:42:15;8.40;;;5.20;;
34204;SDS011;20471;49.680;20.074;2023-08-12T02:44:42;6.80;;;4.90;;
34204;SDS011;20471;49.680;20.074;2023-08-12T02:47:08;7.40;;;5.00;;
34204;SDS011;20471;49.680;20.074;2023-08-12T02:49:34;6.90;;;4.60;;
34204;SDS011;20471;49.680;20.074;2023-08-12T02:52:01;5.10;;;4.60;;
34204;SDS011;20471;49.680;20.074;2023-08-12T02:54:28;7.70;;;5.00;;
34204;SDS011;20471;49.680;20.074;2023-08-12T02:56:54;6.60;;;5.30;;
34204;SDS011;20471;49.680;20.074;2023-08-12T02:59:21;6.10;;;4.70;;
34204;SDS011;20471;49.680;20.074;2023-08-12T03:01:47;5.80;;;4.60;;
34204;SDS011;20471;49.680;20.074;2023-08-12T03:04:13;5.70;;;4.90;;
34204;SDS011;20471;49.680;20.074;2023-08-12T03:06:39;5.50;;;4.90;;
34204;SDS011;20471;49.680;20.074;2023-08-12T03:09:06;6.50;;;5.00;;
34204;SDS011;20471;49.680;20.074;2023-08-12T03:11:32;7.50;;;4.70;;
34204;SDS011;20471;49.680;20.074;2023-08-12T03:13:59;7.20;;;5.00;;
34204;SDS011;20471;49.680;20.074;2023-08-12T03:16:28;8.70;;;5.50;;
34204;SDS011;20471;49.680;20.074;2023-08-12T03:18:54;8.80;;;5.00;;
34204;SDS011;20471;49.680;20.074;2023-08-12T03:21:20;6.60;;;5.10;;
34204;SDS011;20471;49.680;20.074;2023-08-12T03:23:46;6.30;;;5.30;;
34204;SDS011;20471;49.680;20.074;2023-08-12T03:26:13;6.80;;;5.00;;
34204;SDS011;20471;49.680;20.074;2023-08-12T03:28:40;7.30;;;5.00;;
34204;SDS011;20471;49.680;20.074;2023-08-12T03:31:06;5.60;;;5.00;;
34204;SDS011;20471;49.680;20.074;2023-08-12T03:33:32;6.00;;;5.40;;
34204;SDS011;20471;49.680;20.074;2023-08-12T03:35:59;6.70;;;5.20;;
34204;SDS011;20471;49.680;20.074;2023-08-12T03:38:25;8.30;;;5.30;;
34204;SDS011;20471;49.680;20.074;2023-08-12T03:40:52;6.90;;;5.00;;
34204;SDS011;20471;49.680;20.074;2023-08-12T03:43:18;9.60;;;6.40;;
34204;SDS011;20471;49.680;20.074;2023-08-12T03:45:45;8.30;;;5.60;;
34204;SDS011;20471;49.680;20.074;2023-08-12T03:48:11;7.40;;;5.50;;
34204;SDS011;20471;49.680;20.074;2023-08-12T03:50:38;8.50;;;5.60;;
34204;SDS011;20471;49.680;20.074;2023-08-12T03:53:05;7.80;;;5.40;;
34204;SDS011;20471;49.680;20.074;2023-08-12T03:55:32;7.40;;;5.00;;
34204;SDS011;20471;49.680;20.074;2023-08-12T03:57:59;5.90;;;5.30;;
34204;SDS011;20471;49.680;20.074;2023-08-12T04:00:26;7.10;;;5.40;;
34204;SDS011;20471;49.680;20.074;2023-08-12T04:02:53;8.60;;;5.40;;
34204;SDS011;20471;49.680;20.074;2023-08-12T04:05:20;6.40;;;5.80;;
34204;SDS011;20471;49.680;20.074;2023-08-12T04:07:46;6.30;;;5.70;;
34204;SDS011;20471;49.680;20.074;2023-08-12T04:10:12;6.30;;;5.50;;
34204;SDS011;20471;49.680;20.074;2023-08-12T04:12:40;8.10;;;5.40;;
34204;SDS011;20471;49.680;20.074;2023-08-12T04:15:07;10.40;;;6.10;;
34204;SDS011;20471;49.680;20.074;2023-08-12T04:17:34;17.50;;;11.90;;
34204;SDS011;20471;49.680;20.074;2023-08-12T04:20:01;27.20;;;16.70;;
34204;SDS011;20471;49.680;20.074;2023-08-12T04:22:31;23.10;;;15.40;;
34204;SDS011;20471;49.680;20.074;2023-08-12T04:24:57;12.70;;;8.60;;
34204;SDS011;20471;49.680;20.074;2023-08-12T04:27:23;12.60;;;8.00;;
34204;SDS011;20471;49.680;20.074;2023-08-12T04:29:50;10.60;;;7.60;;
34204;SDS011;20471;49.680;20.074;2023-08-12T04:32:16;11.30;;;7.20;;
34204;SDS011;20471;49.680;20.074;2023-08-12T04:34:42;9.30;;;6.30;;
34204;SDS011;20471;49.680;20.074;2023-08-12T04:37:09;7.10;;;6.30;;
34204;SDS011;20471;49.680;20.074;2023-08-12T04:39:35;7.90;;;6.20;;
34204;SDS011;20471;49.680;20.074;2023-08-12T04:42:01;9.30;;;6.80;;
34204;SDS011;20471;49.680;20.074;2023-08-12T04:44:27;9.10;;;7.30;;
34204;SDS011;20471;49.680;20.074;2023-08-12T04:46:54;10.70;;;7.40;;
34204;SDS011;20471;49.680;20.074;2023-08-12T04:49:20;8.90;;;7.30;;
34204;SDS011;20471;49.680;20.074;2023-08-12T04:51:46;8.20;;;6.50;;
34204;SDS011;20471;49.680;20.074;2023-08-12T04:54:13;8.40;;;6.70;;
34204;SDS011;20471;49.680;20.074;2023-08-12T04:56:39;11.10;;;6.80;;
34204;SDS011;20471;49.680;20.074;2023-08-12T04:59:05;10.70;;;8.30;;
34204;SDS011;20471;49.680;20.074;2023-08-12T05:01:33;13.10;;;7.30;;
34204;SDS011;20471;49.680;20.074;2023-08-12T05:04:00;11.20;;;7.50;;
34204;SDS011;20471;49.680;20.074;2023-08-12T05:06:26;17.40;;;8.10;;
34204;SDS011;20471;49.680;20.074;2023-08-12T05:08:52;13.30;;;7.60;;
34204;SDS011;20471;49.680;20.074;2023-08-12T05:11:19;11.90;;;8.00;;
34204;SDS011;20471;49.680;20.074;2023-08-12T05:13:45;9.20;;;8.00;;
34204;SDS011;20471;49.680;20.074;2023-08-12T05:16:11;14.80;;;8.30;;
34204;SDS011;20471;49.680;20.074;2023-08-12T05:18:38;13.20;;;9.00;;
34204;SDS011;20471;49.680;20.074;2023-08-12T05:21:04;14.90;;;9.10;;
34204;SDS011;20471;49.680;20.074;2023-08-12T05:23:30;15.90;;;10.90;;
34204;SDS011;20471;49.680;20.074;2023-08-12T05:25:56;13.00;;;10.10;;
34204;SDS011;20471;49.680;20.074;2023-08-12T05:28:23;12.70;;;9.50;;
34204;SDS011;20471;49.680;20.074;2023-08-12T05:30:49;13.80;;;10.30;;
34204;SDS011;20471;49.680;20.074;2023-08-12T05:33:15;11.50;;;8.30;;
34204;SDS011;20471;49.680;20.074;2023-08-12T05:35:42;10.60;;;7.90;;
34204;SDS011;20471;49.680;20.074;2023-08-12T05:38:08;8.90;;;7.00;;
34204;SDS011;20471;49.680;20.074;2023-08-12T05:40:34;7.80;;;6.90;;
34204;SDS011;20471;49.680;20.074;2023-08-12T05:43:01;12.30;;;7.10;;
34204;SDS011;20471;49.680;20.074;2023-08-12T05:45:28;10.30;;;7.50;;
34204;SDS011;20471;49.680;20.074;2023-08-12T05:47:54;8.80;;;6.60;;
34204;SDS011;20471;49.680;20.074;2023-08-12T05:50:20;11.40;;;6.90;;
34204;SDS011;20471;49.680;20.074;2023-08-12T05:52:47;10.40;;;7.70;;
34204;SDS011;20471;49.680;20.074;2023-08-12T05:55:13;11.30;;;7.60;;
34204;SDS011;20471;49.680;20.074;2023-08-12T05:57:40;9.40;;;7.20;;
34204;SDS011;20471;49.680;20.074;2023-08-12T06:00:06;9.50;;;7.10;;
34204;SDS011;20471;49.680;20.074;2023-08-12T06:02:33;7.80;;;6.60;;
34204;SDS011;20471;49.680;20.074;2023-08-12T06:04:59;9.20;;;7.10;;
34204;SDS011;20471;49.680;20.074;2023-08-12T06:07:26;8.30;;;6.50;;
34204;SDS011;20471;49.680;20.074;2023-08-12T06:09:52;10.20;;;6.70;;
34204;SDS011;20471;49.680;20.074;2023-08-12T06:12:19;8.30;;;6.70;;
34204;SDS011;20471;49.680;20.074;2023-08-12T06:14:45;10.20;;;7.00;;
34204;SDS011;20471;49.680;20.074;2023-08-12T06:17:11;10.10;;;7.30;;
34204;SDS011;20471;49.680;20.074;2023-08-12T06:19:38;9.30;;;6.70;;
34204;SDS011;20471;49.680;20.074;2023-08-12T06:22:04;10.30;;;6.80;;
34204;SDS011;20471;49.680;20.074;2023-08-12T06:24:30;7.30;;;6.50;;
34204;SDS011;20471;49.680;20.074;2023-08-12T06:26:57;9.70;;;7.20;;
34204;SDS011;20471;49.680;20.074;2023-08-12T06:29:23;9.30;;;7.60;;
34204;SDS011;20471;49.680;20.074;2023-08-12T06:31:49;9.30;;;8.20;;
34204;SDS011;20471;49.680;20.074;2023-08-12T06:34:16;11.00;;;8.30;;
34204;SDS011;20471;49.680;20.074;2023-08-12T06:36:42;13.90;;;8.30;;
34204;SDS011;20471;49.680;20.074;2023-08-12T06:39:08;12.30;;;8.40;;
34204;SDS011;20471;49.680;20.074;2023-08-12T06:41:34;9.70;;;7.80;;
34204;SDS011;20471;49.680;20.074;2023-08-12T06:44:01;11.10;;;7.50;;
34204;SDS011;20471;49.680;20.074;2023-08-12T06:46:29;15.00;;;7.30;;
34204;SDS011;20471;49.680;20.074;2023-08-12T06:48:57;10.10;;;5.90;;
34204;SDS011;20471;49.680;20.074;2023-08-12T06:51:24;8.20;;;6.00;;
34204;SDS011;20471;49.680;20.074;2023-08-12T06:53:51;7.60;;;5.80;;
34204;SDS011;20471;49.680;20.074;2023-08-12T06:56:17;9.10;;;5.90;;
34204;SDS011;20471;49.680;20.074;2023-08-12T06:58:43;7.00;;;5.90;;
34204;SDS011;20471;49.680;20.074;2023-08-12T07:01:09;7.30;;;5.40;;
34204;SDS011;20471;49.680;20.074;2023-08-12T07:03:36;7.60;;;5.30;;
34204;SDS011;20471;49.680;20.074;2023-08-12T07:06:05;9.70;;;5.70;;
34204;SDS011;20471;49.680;20.074;2023-08-12T07:08:31;6.00;;;5.10;;
34204;SDS011;20471;49.680;20.074;2023-08-12T07:10:58;9.80;;;5.70;;
34204;SDS011;20471;49.680;20.074;2023-08-12T07:13:24;8.90;;;5.40;;
34204;SDS011;20471;49.680;20.074;2023-08-12T07:15:50;8.10;;;5.80;;
34204;SDS011;20471;49.680;20.074;2023-08-12T07:18:17;10.10;;;5.00;;
34204;SDS011;20471;49.680;20.074;2023-08-12T07:20:43;6.10;;;5.40;;
34204;SDS011;20471;49.680;20.074;2023-08-12T07:23:09;6.10;;;5.50;;
34204;SDS011;20471;49.680;20.074;2023-08-12T07:25:36;8.00;;;5.90;;
34204;SDS011;20471;49.680;20.074;2023-08-12T07:28:02;7.90;;;5.40;;
34204;SDS011;20471;49.680;20.074;2023-08-12T07:30:28;6.30;;;5.10;;
34204;SDS011;20471;49.680;20.074;2023-08-12T07:32:55;7.60;;;5.50;;
34204;SDS011;20471;49.680;20.074;2023-08-12T07:35:21;9.60;;;5.70;;
34204;SDS011;20471;49.680;20.074;2023-08-12T07:37:48;7.20;;;5.50;;
34204;SDS011;20471;49.680;20.074;2023-08-12T07:40:14;7.20;;;5.00;;
34204;SDS011;20471;49.680;20.074;2023-08-12T07:42:40;8.90;;;4.90;;
34204;SDS011;20471;49.680;20.074;2023-08-12T07:45:07;6.40;;;5.00;;
34204;SDS011;20471;49.680;20.074;2023-08-12T07:47:34;7.10;;;5.00;;
34204;SDS011;20471;49.680;20.074;2023-08-12T07:50:00;5.40;;;4.50;;
34204;SDS011;20471;49.680;20.074;2023-08-12T07:52:27;8.10;;;4.40;;
34204;SDS011;20471;49.680;20.074;2023-08-12T07:54:53;7.40;;;5.20;;
34204;SDS011;20471;49.680;20.074;2023-08-12T07:57:19;6.50;;;4.20;;
34204;SDS011;20471;49.680;20.074;2023-08-12T07:59:50;6.70;;;4.20;;
34204;SDS011;20471;49.680;20.074;2023-08-12T08:02:17;5.90;;;4.50;;
34204;SDS011;20471;49.680;20.074;2023-08-12T08:04:43;6.00;;;4.50;;
34204;SDS011;20471;49.680;20.074;2023-08-12T08:07:10;7.40;;;4.30;;
34204;SDS011;20471;49.680;20.074;2023-08-12T08:09:37;6.10;;;4.40;;
34204;SDS011;20471;49.680;20.074;2023-08-12T08:12:03;9.40;;;4.60;;
34204;SDS011;20471;49.680;20.074;2023-08-12T08:14:30;7.40;;;4.30;;
34204;SDS011;20471;49.680;20.074;2023-08-12T08:16:56;6.60;;;3.80;;
34204;SDS011;20471;49.680;20.074;2023-08-12T08:19:23;6.90;;;3.90;;
34204;SDS011;20471;49.680;20.074;2023-08-12T08:21:49;6.30;;;3.60;;
34204;SDS011;20471;49.680;20.074;2023-08-12T08:24:15;5.40;;;3.50;;
34204;SDS011;20471;49.680;20.074;2023-08-12T08:26:41;6.00;;;3.20;;
34204;SDS011;20471;49.680;20.074;2023-08-12T08:29:08;7.20;;;3.30;;
34204;SDS011;20471;49.680;20.074;2023-08-12T08:31:34;4.50;;;3.00;;
34204;SDS011;20471;49.680;20.074;2023-08-12T08:34:01;4.30;;;3.20;;
34204;SDS011;20471;49.680;20.074;2023-08-12T08:36:27;4.00;;;3.40;;
34204;SDS011;20471;49.680;20.074;2023-08-12T08:38:53;7.00;;;3.30;;
34204;SDS011;20471;49.680;20.074;2023-08-12T08:41:19;3.90;;;3.20;;
34204;SDS011;20471;49.680;20.074;2023-08-12T08:43:47;7.10;;;2.60;;
34204;SDS011;20471;49.680;20.074;2023-08-12T08:46:15;3.40;;;2.70;;
34204;SDS011;20471;49.680;20.074;2023-08-12T08:48:42;4.40;;;2.60;;
34204;SDS011;20471;49.680;20.074;2023-08-12T08:51:10;5.50;;;2.60;;
34204;SDS011;20471;49.680;20.074;2023-08-12T08:53:37;6.80;;;2.90;;
34204;SDS011;20471;49.680;20.074;2023-08-12T08:56:05;5.10;;;2.70;;
34204;SDS011;20471;49.680;20.074;2023-08-12T08:58:33;4.90;;;2.40;;
34204;SDS011;20471;49.680;20.074;2023-08-12T09:01:00;5.10;;;2.60;;
34204;SDS011;20471;49.680;20.074;2023-08-12T09:03:28;5.00;;;3.00;;
34204;SDS011;20471;49.680;20.074;2023-08-12T09:05:55;4.50;;;2.80;;
34204;SDS011;20471;49.680;20.074;2023-08-12T09:08:22;5.40;;;2.80;;
34204;SDS011;20471;49.680;20.074;2023-08-12T09:10:50;4.10;;;2.70;;
34204;SDS011;20471;49.680;20.074;2023-08-12T09:13:19;6.30;;;2.70;;
34204;SDS011;20471;49.680;20.074;2023-08-12T09:15:45;6.40;;;2.70;;
34204;SDS011;20471;49.680;20.074;2023-08-12T09:18:12;5.40;;;3.00;;
34204;SDS011;20471;49.680;20.074;2023-08-12T09:20:38;7.00;;;3.00;;
34204;SDS011;20471;49.680;20.074;2023-08-12T09:23:04;6.30;;;2.70;;
34204;SDS011;20471;49.680;20.074;2023-08-12T09:25:34;5.70;;;3.00;;
34204;SDS011;20471;49.680;20.074;2023-08-12T09:28:00;3.80;;;2.50;;
34204;SDS011;20471;49.680;20.074;2023-08-12T09:30:30;3.80;;;2.50;;
34204;SDS011;20471;49.680;20.074;2023-08-12T09:33:00;4.70;;;2.90;;
34204;SDS011;20471;49.680;20.074;2023-08-12T09:35:33;5.50;;;3.10;;
34204;SDS011;20471;49.680;20.074;2023-08-12T09:38:01;5.10;;;2.90;;
34204;SDS011;20471;49.680;20.074;2023-08-12T09:40:29;4.20;;;2.90;;
34204;SDS011;20471;49.680;20.074;2023-08-12T09:42:57;3.10;;;2.70;;
34204;SDS011;20471;49.680;20.074;2023-08-12T09:45:24;4.40;;;3.30;;
34204;SDS011;20471;49.680;20.074;2023-08-12T09:47:51;5.70;;;3.00;;
34204;SDS011;20471;49.680;20.074;2023-08-12T09:50:21;4.90;;;2.90;;
34204;SDS011;20471;49.680;20.074;2023-08-12T09:52:49;5.30;;;3.20;;
34204;SDS011;20471;49.680;20.074;2023-08-12T09:55:16;5.90;;;3.10;;
34204;SDS011;20471;49.680;20.074;2023-08-12T09:57:44;5.00;;;2.70;;
34204;SDS011;20471;49.680;20.074;2023-08-12T10:00:14;4.90;;;2.40;;
34204;SDS011;20471;49.680;20.074;2023-08-12T10:02:44;3.40;;;3.00;;
34204;SDS011;20471;49.680;20.074;2023-08-12T10:05:12;4.00;;;2.80;;
34204;SDS011;20471;49.680;20.074;2023-08-12T10:07:44;2.90;;;2.60;;
34204;SDS011;20471;49.680;20.074;2023-08-12T10:10:14;4.00;;;2.30;;
34204;SDS011;20471;49.680;20.074;2023-08-12T10:12:41;3.40;;;2.60;;
34204;SDS011;20471;49.680;20.074;2023-08-12T10:15:07;3.80;;;2.80;;
34204;SDS011;20471;49.680;20.074;2023-08-12T10:17:36;2.90;;;2.60;;
34204;SDS011;20471;49.680;20.074;2023-08-12T10:20:04;4.10;;;2.60;;
34204;SDS011;20471;49.680;20.074;2023-08-12T10:22:31;5.10;;;4.20;;
34204;SDS011;20471;49.680;20.074;2023-08-12T10:24:59;5.80;;;3.90;;
34204;SDS011;20471;49.680;20.074;2023-08-12T10:27:28;8.20;;;2.60;;
34204;SDS011;20471;49.680;20.074;2023-08-12T10:29:57;3.80;;;2.60;;
34204;SDS011;20471;49.680;20.074;2023-08-12T10:32:24;4.30;;;3.20;;
34204;SDS011;20471;49.680;20.074;2023-08-12T10:34:56;5.10;;;3.30;;
34204;SDS011;20471;49.680;20.074;2023-08-12T10:37:24;5.00;;;3.50;;
34204;SDS011;20471;49.680;20.074;2023-08-12T10:39:51;4.40;;;3.40;;
34204;SDS011;20471;49.680;20.074;2023-08-12T10:45:13;6.00;;;2.70;;
34204;SDS011;20471;49.680;20.074;2023-08-12T10:48:26;6.20;;;2.70;;
34204;SDS011;20471;49.680;20.074;2023-08-12T10:50:34;4.60;;;2.70;;
34204;SDS011;20471;49.680;20.074;2023-08-12T10:53:20;7.50;;;3.10;;
34204;SDS011;20471;49.680;20.074;2023-08-12T10:55:48;3.80;;;2.90;;
34204;SDS011;20471;49.680;20.074;2023-08-12T10:58:24;5.80;;;3.00;;
34204;SDS011;20471;49.680;20.074;2023-08-12T11:00:53;6.10;;;3.50;;
34204;SDS011;20471;49.680;20.074;2023-08-12T11:03:21;7.00;;;3.50;;
34204;SDS011;20471;49.680;20.074;2023-08-12T11:05:48;3.00;;;2.70;;
34204;SDS011;20471;49.680;20.074;2023-08-12T11:08:14;2.80;;;2.40;;
34204;SDS011;20471;49.680;20.074;2023-08-12T11:10:40;4.10;;;2.70;;
34204;SDS011;20471;49.680;20.074;2023-08-12T11:13:09;5.60;;;3.30;;
34204;SDS011;20471;49.680;20.074;2023-08-12T11:20:35;5.20;;;3.40;;
34204;SDS011;20471;49.680;20.074;2023-08-12T11:23:03;5.00;;;3.00;;
34204;SDS011;20471;49.680;20.074;2023-08-12T11:25:31;3.80;;;3.20;;
34204;SDS011;20471;49.680;20.074;2023-08-12T11:27:58;4.80;;;2.60;;
34204;SDS011;20471;49.680;20.074;2023-08-12T11:30:25;3.60;;;3.20;;
34204;SDS011;20471;49.680;20.074;2023-08-12T11:32:52;3.70;;;2.80;;
34204;SDS011;20471;49.680;20.074;2023-08-12T11:35:20;7.50;;;2.90;;
34204;SDS011;20471;49.680;20.074;2023-08-12T11:37:52;4.90;;;3.20;;
34204;SDS011;20471;49.680;20.074;2023-08-12T11:50:13;4.70;;;2.80;;
34204;SDS011;20471;49.680;20.074;2023-08-12T11:52:50;3.90;;;3.00;;
34204;SDS011;20471;49.680;20.074;2023-08-12T11:55:17;4.90;;;2.80;;
34204;SDS011;20471;49.680;20.074;2023-08-12T11:57:45;3.10;;;2.80;;
34204;SDS011;20471;49.680;20.074;2023-08-12T12:00:12;7.70;;;2.90;;
34204;SDS011;20471;49.680;20.074;2023-08-12T12:02:50;4.00;;;2.70;;
34204;SDS011;20471;49.680;20.074;2023-08-12T12:05:27;5.40;;;2.90;;
34204;SDS011;20471;49.680;20.074;2023-08-12T12:08:04;5.00;;;3.50;;
34204;SDS011;20471;49.680;20.074;2023-08-12T12:10:34;6.00;;;3.50;;
34204;SDS011;20471;49.680;20.074;2023-08-12T12:13:02;6.90;;;3.50;;
34204;SDS011;20471;49.680;20.074;2023-08-12T12:15:30;8.90;;;3.10;;
34204;SDS011;20471;49.680;20.074;2023-08-12T12:18:18;4.60;;;3.60;;
34204;SDS011;20471;49.680;20.074;2023-08-12T12:20:56;7.10;;;3.20;;
34204;SDS011;20471;49.680;20.074;2023-08-12T12:23:28;3.40;;;2.70;;
34204;SDS011;20471;49.680;20.074;2023-08-12T12:25:58;3.90;;;2.50;;
34204;SDS011;20471;49.680;20.074;2023-08-12T12:28:31;9.30;;;3.00;;
34204;SDS011;20471;49.680;20.074;2023-08-12T12:31:07;9.70;;;3.40;;
34204;SDS011;20471;49.680;20.074;2023-08-12T12:33:33;3.00;;;2.80;;
34204;SDS011;20471;49.680;20.074;2023-08-12T12:36:03;3.10;;;2.60;;
34204;SDS011;20471;49.680;20.074;2023-08-12T12:38:30;5.90;;;2.70;;
34204;SDS011;20471;49.680;20.074;2023-08-12T12:40:56;4.50;;;3.10;;
34204;SDS011;20471;49.680;20.074;2023-08-12T12:43:22;4.30;;;2.70;;
34204;SDS011;20471;49.680;20.074;2023-08-12T12:45:51;4.60;;;2.80;;
34204;SDS011;20471;49.680;20.074;2023-08-12T12:48:17;2.80;;;2.40;;
34204;SDS011;20471;49.680;20.074;2023-08-12T12:50:44;3.10;;;2.30;;
34204;SDS011;20471;49.680;20.074;2023-08-12T12:53:10;3.80;;;2.50;;
34204;SDS011;20471;49.680;20.074;2023-08-12T12:55:36;3.90;;;2.60;;
34204;SDS011;20471;49.680;20.074;2023-08-12T12:58:03;4.90;;;2.80;;
34204;SDS011;20471;49.680;20.074;2023-08-12T13:00:29;3.80;;;2.50;;
34204;SDS011;20471;49.680;20.074;2023-08-12T13:02:56;3.00;;;2.40;;
34204;SDS011;20471;49.680;20.074;2023-08-12T13:05:23;7.30;;;2.80;;
34204;SDS011;20471;49.680;20.074;2023-08-12T13:07:49;3.00;;;2.60;;
34204;SDS011;20471;49.680;20.074;2023-08-12T13:10:15;4.80;;;2.90;;
34204;SDS011;20471;49.680;20.074;2023-08-12T13:12:42;4.30;;;2.50;;
34204;SDS011;20471;49.680;20.074;2023-08-12T13:15:08;4.00;;;2.60;;
34204;SDS011;20471;49.680;20.074;2023-08-12T13:17:35;3.80;;;2.70;;
34204;SDS011;20471;49.680;20.074;2023-08-12T13:20:01;5.20;;;2.90;;
34204;SDS011;20471;49.680;20.074;2023-08-12T13:22:28;2.70;;;2.30;;
34204;SDS011;20471;49.680;20.074;2023-08-12T13:24:55;3.40;;;2.60;;
34204;SDS011;20471;49.680;20.074;2023-08-12T13:27:21;3.70;;;2.60;;
34204;SDS011;20471;49.680;20.074;2023-08-12T13:29:48;4.70;;;2.40;;
34204;SDS011;20471;49.680;20.074;2023-08-12T13:32:15;4.80;;;2.30;;
34204;SDS011;20471;49.680;20.074;2023-08-12T13:34:41;2.60;;;2.20;;
34204;SDS011;20471;49.680;20.074;2023-08-12T13:37:08;3.30;;;2.20;;
34204;SDS011;20471;49.680;20.074;2023-08-12T13:39:36;3.80;;;3.40;;
34204;SDS011;20471;49.680;20.074;2023-08-12T13:42:02;4.60;;;3.40;;
34204;SDS011;20471;49.680;20.074;2023-08-12T13:44:28;4.50;;;3.20;;
34204;SDS011;20471;49.680;20.074;2023-08-12T13:46:54;3.90;;;3.30;;
34204;SDS011;20471;49.680;20.074;2023-08-12T13:49:21;3.70;;;2.80;;
34204;SDS011;20471;49.680;20.074;2023-08-12T13:51:47;2.90;;;2.60;;
34204;SDS011;20471;49.680;20.074;2023-08-12T13:54:13;4.30;;;2.50;;
34204;SDS011;20471;49.680;20.074;2023-08-12T13:56:40;3.60;;;2.40;;
34204;SDS011;20471;49.680;20.074;2023-08-12T13:59:06;3.80;;;2.30;;
34204;SDS011;20471;49.680;20.074;2023-08-12T14:01:32;2.70;;;2.40;;
34204;SDS011;20471;49.680;20.074;2023-08-12T14:03:59;2.40;;;2.10;;
34204;SDS011;20471;49.680;20.074;2023-08-12T14:06:25;3.50;;;2.50;;
34204;SDS011;20471;49.680;20.074;2023-08-12T14:08:51;3.10;;;2.80;;
34204;SDS011;20471;49.680;20.074;2023-08-12T14:11:18;3.90;;;2.30;;
34204;SDS011;20471;49.680;20.074;2023-08-12T14:13:46;3.00;;;2.30;;
34204;SDS011;20471;49.680;20.074;2023-08-12T14:16:12;4.70;;;2.90;;
34204;SDS011;20471;49.680;20.074;2023-08-12T14:18:38;3.40;;;2.30;;
34204;SDS011;20471;49.680;20.074;2023-08-12T14:21:05;2.70;;;2.50;;
34204;SDS011;20471;49.680;20.074;2023-08-12T14:23:31;3.10;;;2.70;;
34204;SDS011;20471;49.680;20.074;2023-08-12T14:25:57;3.60;;;2.90;;
34204;SDS011;20471;49.680;20.074;2023-08-12T14:28:24;3.30;;;2.40;;
34204;SDS011;20471;49.680;20.074;2023-08-12T14:30:50;3.70;;;2.60;;
34204;SDS011;20471;49.680;20.074;2023-08-12T14:33:16;3.30;;;2.40;;
34204;SDS011;20471;49.680;20.074;2023-08-12T14:35:43;3.20;;;2.50;;
34204;SDS011;20471;49.680;20.074;2023-08-12T14:38:09;2.90;;;2.40;;
34204;SDS011;20471;49.680;20.074;2023-08-12T14:40:36;4.60;;;2.70;;
34204;SDS011;20471;49.680;20.074;2023-08-12T14:43:02;3.60;;;2.30;;
34204;SDS011;20471;49.680;20.074;2023-08-12T14:45:28;5.10;;;2.40;;
34204;SDS011;20471;49.680;20.074;2023-08-12T14:47:55;3.60;;;2.60;;
34204;SDS011;20471;49.680;20.074;2023-08-12T14:50:21;3.30;;;2.50;;
34204;SDS011;20471;49.680;20.074;2023-08-12T14:52:47;4.40;;;2.60;;